sensor_id;sensor_type;location;lat;lon;timestamp;temperature;humidity
12520;DHT22;6325;49.540;8.364;2023-12-07T00:02:11;3.90;99.90
12520;DHT22;6325;49.540;8.364;2023-12-07T00:04:38;3.40;99.90
12520;DHT22;6325;49.540;8.364;2023-12-07T00:07:07;3.70;99.90
12520;DHT22;6325;49.540;8.364;2023-12-07T00:09:33;3.40;99.90
12520;DHT22;6325;49.540;8.364;2023-12-07T00:12:00;3.70;99.90
12520;DHT22;6325;49.540;8.364;2023-12-07T00:14:27;3.80;99.90
12520;DHT22;6325;49.540;8.364;2023-12-07T00:16:53;3.40;99.90
12520;DHT22;6325;49.540;8.364;2023-12-07T00:19:20;3.70;99.90
12520;DHT22;6325;49.540;8.364;2023-12-07T00:21:47;3.30;99.90
12520;DHT22;6325;49.540;8.364;2023-12-07T00:24:15;2.90;99.90
12520;DHT22;6325;49.540;8.364;2023-12-07T00:26:42;2.70;99.90
12520;DHT22;6325;49.540;8.364;2023-12-07T00:29:08;3.00;99.90
12520;DHT22;6325;49.540;8.364;2023-12-07T00:31:35;3.20;99.90
12520;DHT22;6325;49.540;8.364;2023-12-07T00:34:03;3.00;99.90
12520;DHT22;6325;49.540;8.364;2023-12-07T00:36:29;2.80;99.90
12520;DHT22;6325;49.540;8.364;2023-12-07T00:38:56;2.70;99.90
12520;DHT22;6325;49.540;8.364;2023-12-07T00:41:24;3.20;99.90
12520;DHT22;6325;49.540;8.364;2023-12-07T00:43:51;2.70;99.90
12520;DHT22;6325;49.540;8.364;2023-12-07T00:46:18;3.20;99.90
12520;DHT22;6325;49.540;8.364;2023-12-07T00:48:44;3.20;99.90
12520;DHT22;6325;49.540;8.364;2023-12-07T00:51:11;2.30;99.90
12520;DHT22;6325;49.540;8.364;2023-12-07T00:53:38;2.50;99.90
12520;DHT22;6325;49.540;8.364;2023-12-07T00:56:06;2.20;99.90
12520;DHT22;6325;49.540;8.364;2023-12-07T00:58:34;2.80;99.90
12520;DHT22;6325;49.540;8.364;2023-12-07T01:01:01;2.70;99.90
12520;DHT22;6325;49.540;8.364;2023-12-07T01:03:28;2.20;99.90
12520;DHT22;6325;49.540;8.364;2023-12-07T01:05:55;2.40;99.90
12520;DHT22;6325;49.540;8.364;2023-12-07T01:08:22;2.70;99.90
12520;DHT22;6325;49.540;8.364;2023-12-07T01:10:49;1.50;99.90
12520;DHT22;6325;49.540;8.364;2023-12-07T01:13:15;1.70;99.90
12520;DHT22;6325;49.540;8.364;2023-12-07T01:15:43;2.20;99.90
12520;DHT22;6325;49.540;8.364;2023-12-07T01:18:10;2.10;99.90
12520;DHT22;6325;49.540;8.364;2023-12-07T01:20:37;2.70;99.90
12520;DHT22;6325;49.540;8.364;2023-12-07T01:23:04;2.20;99.90
12520;DHT22;6325;49.540;8.364;2023-12-07T01:25:30;2.00;99.90
12520;DHT22;6325;49.540;8.364;2023-12-07T01:27:57;2.30;99.90
12520;DHT22;6325;49.540;8.364;2023-12-07T01:30:24;2.20;99.90
12520;DHT22;6325;49.540;8.364;2023-12-07T01:32:52;2.20;99.90
12520;DHT22;6325;49.540;8.364;2023-12-07T01:35:19;2.30;99.90
12520;DHT22;6325;49.540;8.364;2023-12-07T01:37:46;2.30;99.90
12520;DHT22;6325;49.540;8.364;2023-12-07T01:40:13;2.50;99.90
12520;DHT22;6325;49.540;8.364;2023-12-07T01:42:40;2.10;99.90
12520;DHT22;6325;49.540;8.364;2023-12-07T01:45:07;2.20;99.90
12520;DHT22;6325;49.540;8.364;2023-12-07T01:47:35;1.50;99.90
12520;DHT22;6325;49.540;8.364;2023-12-07T01:50:05;2.30;99.90
12520;DHT22;6325;49.540;8.364;2023-12-07T01:52:32;1.80;99.90
12520;DHT22;6325;49.540;8.364;2023-12-07T01:55:02;2.10;99.90
12520;DHT22;6325;49.540;8.364;2023-12-07T01:57:29;2.50;99.90
12520;DHT22;6325;49.540;8.364;2023-12-07T01:59:56;1.20;99.90
12520;DHT22;6325;49.540;8.364;2023-12-07T02:02:23;1.30;99.90
12520;DHT22;6325;49.540;8.364;2023-12-07T02:04:50;2.10;99.90
12520;DHT22;6325;49.540;8.364;2023-12-07T02:07:19;1.30;99.90
12520;DHT22;6325;49.540;8.364;2023-12-07T02:09:46;2.20;99.90
12520;DHT22;6325;49.540;8.364;2023-12-07T02:12:13;1.90;99.90
12520;DHT22;6325;49.540;8.364;2023-12-07T02:14:39;1.90;99.90
12520;DHT22;6325;49.540;8.364;2023-12-07T02:17:12;2.00;99.90
12520;DHT22;6325;49.540;8.364;2023-12-07T02:19:55;2.20;99.90
12520;DHT22;6325;49.540;8.364;2023-12-07T02:22:27;1.20;99.90
12520;DHT22;6325;49.540;8.364;2023-12-07T02:25:05;2.00;99.90
12520;DHT22;6325;49.540;8.364;2023-12-07T02:27:35;2.10;99.90
12520;DHT22;6325;49.540;8.364;2023-12-07T02:30:02;1.90;99.90
12520;DHT22;6325;49.540;8.364;2023-12-07T02:32:29;1.70;99.90
12520;DHT22;6325;49.540;8.364;2023-12-07T02:34:56;1.30;99.90
12520;DHT22;6325;49.540;8.364;2023-12-07T02:37:24;0.80;99.90
12520;DHT22;6325;49.540;8.364;2023-12-07T02:39:55;1.30;99.90
12520;DHT22;6325;49.540;8.364;2023-12-07T02:42:22;1.80;99.90
12520;DHT22;6325;49.540;8.364;2023-12-07T02:44:52;1.80;99.90
12520;DHT22;6325;49.540;8.364;2023-12-07T02:47:19;1.40;99.90
12520;DHT22;6325;49.540;8.364;2023-12-07T02:49:46;1.60;99.90
12520;DHT22;6325;49.540;8.364;2023-12-07T02:52:13;1.00;99.90
12520;DHT22;6325;49.540;8.364;2023-12-07T02:54:39;1.50;99.90
12520;DHT22;6325;49.540;8.364;2023-12-07T02:57:06;1.00;99.90
12520;DHT22;6325;49.540;8.364;2023-12-07T02:59:33;1.30;99.90
12520;DHT22;6325;49.540;8.364;2023-12-07T03:02:01;1.50;99.90
12520;DHT22;6325;49.540;8.364;2023-12-07T03:04:28;1.30;99.90
12520;DHT22;6325;49.540;8.364;2023-12-07T03:06:54;1.00;99.90
12520;DHT22;6325;49.540;8.364;2023-12-07T03:09:21;1.50;99.90
12520;DHT22;6325;49.540;8.364;2023-12-07T03:11:48;1.00;99.90
12520;DHT22;6325;49.540;8.364;2023-12-07T03:14:15;1.50;99.90
12520;DHT22;6325;49.540;8.364;2023-12-07T03:16:41;1.20;99.90
12520;DHT22;6325;49.540;8.364;2023-12-07T03:19:09;1.80;99.90
12520;DHT22;6325;49.540;8.364;2023-12-07T03:21:38;1.60;99.90
12520;DHT22;6325;49.540;8.364;2023-12-07T03:24:06;1.10;99.90
12520;DHT22;6325;49.540;8.364;2023-12-07T03:26:34;1.30;99.90
12520;DHT22;6325;49.540;8.364;2023-12-07T03:29:00;0.40;99.90
12520;DHT22;6325;49.540;8.364;2023-12-07T03:31:27;1.20;99.90
12520;DHT22;6325;49.540;8.364;2023-12-07T03:33:53;1.40;99.90
12520;DHT22;6325;49.540;8.364;2023-12-07T03:36:22;0.60;99.90
12520;DHT22;6325;49.540;8.364;2023-12-07T03:38:49;0.50;99.90
12520;DHT22;6325;49.540;8.364;2023-12-07T03:41:19;1.80;99.90
12520;DHT22;6325;49.540;8.364;2023-12-07T03:43:46;0.80;99.90
12520;DHT22;6325;49.540;8.364;2023-12-07T03:46:12;0.50;99.90
12520;DHT22;6325;49.540;8.364;2023-12-07T03:48:39;0.90;99.90
12520;DHT22;6325;49.540;8.364;2023-12-07T03:51:06;0.90;99.90
12520;DHT22;6325;49.540;8.364;2023-12-07T03:53:34;1.40;99.90
12520;DHT22;6325;49.540;8.364;2023-12-07T03:56:01;0.90;99.90
12520;DHT22;6325;49.540;8.364;2023-12-07T03:58:27;0.90;99.90
12520;DHT22;6325;49.540;8.364;2023-12-07T04:00:54;1.00;99.90
12520;DHT22;6325;49.540;8.364;2023-12-07T04:03:21;0.60;99.90
12520;DHT22;6325;49.540;8.364;2023-12-07T04:05:47;0.50;99.90
12520;DHT22;6325;49.540;8.364;2023-12-07T04:08:14;1.00;99.90
12520;DHT22;6325;49.540;8.364;2023-12-07T04:10:42;1.20;99.90
12520;DHT22;6325;49.540;8.364;2023-12-07T04:13:09;1.20;99.90
12520;DHT22;6325;49.540;8.364;2023-12-07T04:15:36;1.20;99.90
12520;DHT22;6325;49.540;8.364;2023-12-07T04:18:03;1.40;99.90
12520;DHT22;6325;49.540;8.364;2023-12-07T04:20:29;1.00;99.90
12520;DHT22;6325;49.540;8.364;2023-12-07T04:22:56;1.10;99.90
12520;DHT22;6325;49.540;8.364;2023-12-07T04:25:23;0.80;99.90
12520;DHT22;6325;49.540;8.364;2023-12-07T04:27:51;1.20;99.90
12520;DHT22;6325;49.540;8.364;2023-12-07T04:30:18;1.30;99.90
12520;DHT22;6325;49.540;8.364;2023-12-07T04:32:44;0.80;99.90
12520;DHT22;6325;49.540;8.364;2023-12-07T04:35:11;0.90;99.90
12520;DHT22;6325;49.540;8.364;2023-12-07T04:37:38;1.10;99.90
12520;DHT22;6325;49.540;8.364;2023-12-07T04:40:06;1.20;99.90
12520;DHT22;6325;49.540;8.364;2023-12-07T04:42:33;0.50;99.90
12520;DHT22;6325;49.540;8.364;2023-12-07T04:45:01;1.10;99.90
12520;DHT22;6325;49.540;8.364;2023-12-07T04:47:27;1.20;99.90
12520;DHT22;6325;49.540;8.364;2023-12-07T04:49:55;1.20;99.90
12520;DHT22;6325;49.540;8.364;2023-12-07T04:52:21;0.40;99.90
12520;DHT22;6325;49.540;8.364;2023-12-07T04:54:48;0.90;99.90
12520;DHT22;6325;49.540;8.364;2023-12-07T04:57:15;1.40;99.90
12520;DHT22;6325;49.540;8.364;2023-12-07T04:59:42;1.20;99.90
12520;DHT22;6325;49.540;8.364;2023-12-07T05:02:13;0.70;99.90
12520;DHT22;6325;49.540;8.364;2023-12-07T05:04:40;1.30;99.90
12520;DHT22;6325;49.540;8.364;2023-12-07T05:07:07;0.90;99.90
12520;DHT22;6325;49.540;8.364;2023-12-07T05:09:33;1.10;99.90
12520;DHT22;6325;49.540;8.364;2023-12-07T05:12:00;1.30;99.90
12520;DHT22;6325;49.540;8.364;2023-12-07T05:14:27;1.00;99.90
12520;DHT22;6325;49.540;8.364;2023-12-07T05:16:54;0.90;99.90
12520;DHT22;6325;49.540;8.364;2023-12-07T05:19:22;0.90;99.90
12520;DHT22;6325;49.540;8.364;2023-12-07T05:21:49;0.70;99.90
12520;DHT22;6325;49.540;8.364;2023-12-07T05:24:16;1.10;99.90
12520;DHT22;6325;49.540;8.364;2023-12-07T05:26:43;0.80;99.90
12520;DHT22;6325;49.540;8.364;2023-12-07T05:29:11;1.00;99.90
12520;DHT22;6325;49.540;8.364;2023-12-07T05:31:38;0.70;99.90
12520;DHT22;6325;49.540;8.364;2023-12-07T05:34:07;0.70;99.90
12520;DHT22;6325;49.540;8.364;2023-12-07T05:36:35;0.50;99.90
12520;DHT22;6325;49.540;8.364;2023-12-07T05:39:02;0.60;99.90
12520;DHT22;6325;49.540;8.364;2023-12-07T05:41:32;0.20;99.90
12520;DHT22;6325;49.540;8.364;2023-12-07T05:43:59;0.90;99.90
12520;DHT22;6325;49.540;8.364;2023-12-07T05:46:26;0.70;99.90
12520;DHT22;6325;49.540;8.364;2023-12-07T05:48:53;0.20;99.90
12520;DHT22;6325;49.540;8.364;2023-12-07T05:51:20;0.70;99.90
12520;DHT22;6325;49.540;8.364;2023-12-07T05:53:48;0.60;99.90
12520;DHT22;6325;49.540;8.364;2023-12-07T05:56:18;1.10;99.90
12520;DHT22;6325;49.540;8.364;2023-12-07T05:58:46;0.80;99.90
12520;DHT22;6325;49.540;8.364;2023-12-07T06:01:12;0.90;99.90
12520;DHT22;6325;49.540;8.364;2023-12-07T06:03:42;1.00;99.90
12520;DHT22;6325;49.540;8.364;2023-12-07T06:06:10;0.80;99.90
12520;DHT22;6325;49.540;8.364;2023-12-07T06:08:37;1.10;99.90
12520;DHT22;6325;49.540;8.364;2023-12-07T06:11:05;1.00;99.90
12520;DHT22;6325;49.540;8.364;2023-12-07T06:13:32;1.00;99.90
12520;DHT22;6325;49.540;8.364;2023-12-07T06:15:59;0.90;99.90
12520;DHT22;6325;49.540;8.364;2023-12-07T06:18:26;0.70;99.90
12520;DHT22;6325;49.540;8.364;2023-12-07T06:20:53;1.00;99.90
12520;DHT22;6325;49.540;8.364;2023-12-07T06:23:20;0.60;99.90
12520;DHT22;6325;49.540;8.364;2023-12-07T06:25:47;0.70;99.90
12520;DHT22;6325;49.540;8.364;2023-12-07T06:28:16;0.90;99.90
12520;DHT22;6325;49.540;8.364;2023-12-07T06:30:43;0.40;99.90
12520;DHT22;6325;49.540;8.364;2023-12-07T06:33:10;0.50;99.90
12520;DHT22;6325;49.540;8.364;2023-12-07T06:35:37;0.70;99.90
12520;DHT22;6325;49.540;8.364;2023-12-07T06:38:04;0.70;99.90
12520;DHT22;6325;49.540;8.364;2023-12-07T06:40:31;0.00;99.90
12520;DHT22;6325;49.540;8.364;2023-12-07T06:42:58;0.40;99.90
12520;DHT22;6325;49.540;8.364;2023-12-07T06:45:26;0.40;99.90
12520;DHT22;6325;49.540;8.364;2023-12-07T06:47:53;0.60;99.90
12520;DHT22;6325;49.540;8.364;2023-12-07T06:50:20;0.60;99.90
12520;DHT22;6325;49.540;8.364;2023-12-07T06:52:46;0.70;99.90
12520;DHT22;6325;49.540;8.364;2023-12-07T06:55:13;0.30;99.90
12520;DHT22;6325;49.540;8.364;2023-12-07T06:57:40;0.40;99.90
12520;DHT22;6325;49.540;8.364;2023-12-07T07:00:08;0.20;99.90
12520;DHT22;6325;49.540;8.364;2023-12-07T07:02:37;0.40;99.90
12520;DHT22;6325;49.540;8.364;2023-12-07T07:05:04;0.70;99.90
12520;DHT22;6325;49.540;8.364;2023-12-07T07:07:32;0.60;99.90
12520;DHT22;6325;49.540;8.364;2023-12-07T07:09:58;0.80;99.90
12520;DHT22;6325;49.540;8.364;2023-12-07T07:12:25;0.60;99.90
12520;DHT22;6325;49.540;8.364;2023-12-07T07:14:53;0.80;99.90
12520;DHT22;6325;49.540;8.364;2023-12-07T07:17:20;0.70;99.90
12520;DHT22;6325;49.540;8.364;2023-12-07T07:19:48;0.70;99.90
12520;DHT22;6325;49.540;8.364;2023-12-07T07:22:14;0.50;99.90
12520;DHT22;6325;49.540;8.364;2023-12-07T07:24:42;0.10;99.90
12520;DHT22;6325;49.540;8.364;2023-12-07T07:27:08;0.40;99.90
12520;DHT22;6325;49.540;8.364;2023-12-07T07:29:35;0.50;99.90
12520;DHT22;6325;49.540;8.364;2023-12-07T07:32:02;0.00;99.90
12520;DHT22;6325;49.540;8.364;2023-12-07T07:34:28;0.90;99.90
12520;DHT22;6325;49.540;8.364;2023-12-07T07:36:56;0.60;99.90
12520;DHT22;6325;49.540;8.364;2023-12-07T07:39:23;0.60;99.90
12520;DHT22;6325;49.540;8.364;2023-12-07T07:41:49;0.40;99.90
12520;DHT22;6325;49.540;8.364;2023-12-07T07:44:16;0.20;99.90
12520;DHT22;6325;49.540;8.364;2023-12-07T07:46:43;1.00;99.90
12520;DHT22;6325;49.540;8.364;2023-12-07T07:49:10;0.50;99.90
12520;DHT22;6325;49.540;8.364;2023-12-07T07:51:36;1.20;99.90
12520;DHT22;6325;49.540;8.364;2023-12-07T07:54:05;0.60;99.90
12520;DHT22;6325;49.540;8.364;2023-12-07T07:56:32;0.80;99.90
12520;DHT22;6325;49.540;8.364;2023-12-07T07:58:58;1.20;99.90
12520;DHT22;6325;49.540;8.364;2023-12-07T08:01:26;1.30;99.90
12520;DHT22;6325;49.540;8.364;2023-12-07T08:03:53;1.20;99.90
12520;DHT22;6325;49.540;8.364;2023-12-07T08:06:20;0.90;99.90
12520;DHT22;6325;49.540;8.364;2023-12-07T08:08:46;1.30;99.90
12520;DHT22;6325;49.540;8.364;2023-12-07T08:11:17;1.10;99.90
12520;DHT22;6325;49.540;8.364;2023-12-07T08:13:44;1.60;99.90
12520;DHT22;6325;49.540;8.364;2023-12-07T08:16:11;1.50;99.90
12520;DHT22;6325;49.540;8.364;2023-12-07T08:18:37;1.40;99.90
12520;DHT22;6325;49.540;8.364;2023-12-07T08:21:04;1.60;99.90
12520;DHT22;6325;49.540;8.364;2023-12-07T08:23:33;1.50;99.90
12520;DHT22;6325;49.540;8.364;2023-12-07T08:26:00;1.80;99.90
12520;DHT22;6325;49.540;8.364;2023-12-07T08:28:30;1.60;99.90
12520;DHT22;6325;49.540;8.364;2023-12-07T08:30:57;2.20;99.90
12520;DHT22;6325;49.540;8.364;2023-12-07T08:33:24;1.70;99.90
12520;DHT22;6325;49.540;8.364;2023-12-07T08:35:51;1.60;99.90
12520;DHT22;6325;49.540;8.364;2023-12-07T08:38:20;2.10;99.90
12520;DHT22;6325;49.540;8.364;2023-12-07T08:40:48;2.60;99.90
12520;DHT22;6325;49.540;8.364;2023-12-07T08:43:15;2.80;99.90
12520;DHT22;6325;49.540;8.364;2023-12-07T08:45:43;2.00;99.90
12520;DHT22;6325;49.540;8.364;2023-12-07T08:48:10;2.50;99.90
12520;DHT22;6325;49.540;8.364;2023-12-07T08:50:37;2.70;99.90
12520;DHT22;6325;49.540;8.364;2023-12-07T08:53:05;1.90;99.90
12520;DHT22;6325;49.540;8.364;2023-12-07T08:55:43;3.00;99.90
12520;DHT22;6325;49.540;8.364;2023-12-07T08:58:27;2.90;99.90
12520;DHT22;6325;49.540;8.364;2023-12-07T09:00:55;3.10;99.90
12520;DHT22;6325;49.540;8.364;2023-12-07T09:03:21;2.90;99.90
12520;DHT22;6325;49.540;8.364;2023-12-07T09:05:52;2.60;99.90
12520;DHT22;6325;49.540;8.364;2023-12-07T09:08:19;2.40;99.90
12520;DHT22;6325;49.540;8.364;2023-12-07T09:10:46;3.00;99.90
12520;DHT22;6325;49.540;8.364;2023-12-07T09:13:15;3.00;99.90
12520;DHT22;6325;49.540;8.364;2023-12-07T09:15:41;2.30;99.90
12520;DHT22;6325;49.540;8.364;2023-12-07T09:18:10;3.20;99.90
12520;DHT22;6325;49.540;8.364;2023-12-07T09:20:36;3.10;99.90
12520;DHT22;6325;49.540;8.364;2023-12-07T09:23:11;3.00;99.90
12520;DHT22;6325;49.540;8.364;2023-12-07T09:25:37;2.90;99.90
12520;DHT22;6325;49.540;8.364;2023-12-07T09:28:04;3.00;99.90
12520;DHT22;6325;49.540;8.364;2023-12-07T09:30:31;2.70;99.90
12520;DHT22;6325;49.540;8.364;2023-12-07T09:32:59;2.30;99.90
12520;DHT22;6325;49.540;8.364;2023-12-07T09:35:29;2.50;99.90
12520;DHT22;6325;49.540;8.364;2023-12-07T09:37:56;2.90;99.90
12520;DHT22;6325;49.540;8.364;2023-12-07T09:40:23;2.90;99.90
12520;DHT22;6325;49.540;8.364;2023-12-07T09:42:51;2.40;99.90
12520;DHT22;6325;49.540;8.364;2023-12-07T09:45:19;2.60;99.90
12520;DHT22;6325;49.540;8.364;2023-12-07T09:47:48;3.10;99.90
12520;DHT22;6325;49.540;8.364;2023-12-07T09:50:16;3.20;99.90
12520;DHT22;6325;49.540;8.364;2023-12-07T09:52:47;2.50;99.90
12520;DHT22;6325;49.540;8.364;2023-12-07T09:55:16;2.70;99.90
12520;DHT22;6325;49.540;8.364;2023-12-07T09:57:42;2.90;99.90
12520;DHT22;6325;49.540;8.364;2023-12-07T10:00:11;2.70;99.90
12520;DHT22;6325;49.540;8.364;2023-12-07T10:02:40;2.20;99.90
12520;DHT22;6325;49.540;8.364;2023-12-07T10:05:09;3.20;99.90
12520;DHT22;6325;49.540;8.364;2023-12-07T10:07:39;2.80;99.90
12520;DHT22;6325;49.540;8.364;2023-12-07T10:10:07;2.60;99.90
12520;DHT22;6325;49.540;8.364;2023-12-07T10:12:44;2.80;99.90
12520;DHT22;6325;49.540;8.364;2023-12-07T10:15:12;2.30;99.90
12520;DHT22;6325;49.540;8.364;2023-12-07T10:17:46;2.10;99.90
12520;DHT22;6325;49.540;8.364;2023-12-07T10:20:15;3.30;99.90
12520;DHT22;6325;49.540;8.364;2023-12-07T10:22:42;3.10;99.90
12520;DHT22;6325;49.540;8.364;2023-12-07T10:25:11;3.20;99.90
12520;DHT22;6325;49.540;8.364;2023-12-07T10:27:40;2.60;99.90
12520;DHT22;6325;49.540;8.364;2023-12-07T10:30:09;3.20;99.90
12520;DHT22;6325;49.540;8.364;2023-12-07T10:32:36;3.40;99.90
12520;DHT22;6325;49.540;8.364;2023-12-07T10:35:06;3.10;99.90
12520;DHT22;6325;49.540;8.364;2023-12-07T10:37:33;2.80;99.90
12520;DHT22;6325;49.540;8.364;2023-12-07T10:40:00;3.70;99.90
12520;DHT22;6325;49.540;8.364;2023-12-07T10:42:32;3.80;99.90
12520;DHT22;6325;49.540;8.364;2023-12-07T10:45:05;3.40;99.90
12520;DHT22;6325;49.540;8.364;2023-12-07T10:47:35;3.50;99.90
12520;DHT22;6325;49.540;8.364;2023-12-07T10:50:05;2.80;99.90
12520;DHT22;6325;49.540;8.364;2023-12-07T10:52:37;3.50;99.90
12520;DHT22;6325;49.540;8.364;2023-12-07T10:55:09;3.40;99.90
12520;DHT22;6325;49.540;8.364;2023-12-07T10:57:39;3.50;99.90
12520;DHT22;6325;49.540;8.364;2023-12-07T11:00:07;3.80;99.90
12520;DHT22;6325;49.540;8.364;2023-12-07T11:02:35;3.50;99.90
12520;DHT22;6325;49.540;8.364;2023-12-07T11:05:03;2.70;99.90
12520;DHT22;6325;49.540;8.364;2023-12-07T11:07:36;2.90;99.90
12520;DHT22;6325;49.540;8.364;2023-12-07T11:10:12;3.50;99.90
12520;DHT22;6325;49.540;8.364;2023-12-07T11:12:47;3.40;99.90
12520;DHT22;6325;49.540;8.364;2023-12-07T11:15:17;3.90;99.90
12520;DHT22;6325;49.540;8.364;2023-12-07T11:17:51;3.50;99.90
12520;DHT22;6325;49.540;8.364;2023-12-07T11:20:20;3.50;99.90
12520;DHT22;6325;49.540;8.364;2023-12-07T11:22:47;3.50;99.90
12520;DHT22;6325;49.540;8.364;2023-12-07T11:25:15;4.20;99.90
12520;DHT22;6325;49.540;8.364;2023-12-07T11:27:45;4.20;99.90
12520;DHT22;6325;49.540;8.364;2023-12-07T11:30:15;4.30;99.90
12520;DHT22;6325;49.540;8.364;2023-12-07T11:32:43;3.60;99.90
12520;DHT22;6325;49.540;8.364;2023-12-07T11:35:14;4.00;99.90
12520;DHT22;6325;49.540;8.364;2023-12-07T11:38:00;4.30;99.90
12520;DHT22;6325;49.540;8.364;2023-12-07T11:40:27;3.40;99.90
12520;DHT22;6325;49.540;8.364;2023-12-07T11:42:55;3.90;99.90
12520;DHT22;6325;49.540;8.364;2023-12-07T11:45:36;3.90;99.90
12520;DHT22;6325;49.540;8.364;2023-12-07T11:48:11;3.80;99.90
12520;DHT22;6325;49.540;8.364;2023-12-07T11:50:56;4.50;99.90
12520;DHT22;6325;49.540;8.364;2023-12-07T11:53:24;4.10;99.90
12520;DHT22;6325;49.540;8.364;2023-12-07T11:55:52;4.10;99.90
12520;DHT22;6325;49.540;8.364;2023-12-07T11:58:20;4.10;99.90
12520;DHT22;6325;49.540;8.364;2023-12-07T12:00:47;3.90;99.90
12520;DHT22;6325;49.540;8.364;2023-12-07T12:03:14;4.20;99.90
12520;DHT22;6325;49.540;8.364;2023-12-07T12:05:41;3.90;99.90
12520;DHT22;6325;49.540;8.364;2023-12-07T12:08:09;3.40;99.90
12520;DHT22;6325;49.540;8.364;2023-12-07T12:10:37;3.30;99.90
12520;DHT22;6325;49.540;8.364;2023-12-07T12:13:04;4.40;99.90
12520;DHT22;6325;49.540;8.364;2023-12-07T12:15:32;4.20;99.90
12520;DHT22;6325;49.540;8.364;2023-12-07T12:18:00;4.20;99.90
12520;DHT22;6325;49.540;8.364;2023-12-07T12:20:28;4.30;99.90
12520;DHT22;6325;49.540;8.364;2023-12-07T12:22:55;3.40;99.90
12520;DHT22;6325;49.540;8.364;2023-12-07T12:25:23;3.80;99.90
12520;DHT22;6325;49.540;8.364;2023-12-07T12:27:52;4.30;99.90
12520;DHT22;6325;49.540;8.364;2023-12-07T12:30:20;3.70;99.90
12520;DHT22;6325;49.540;8.364;2023-12-07T12:32:49;4.00;99.90
12520;DHT22;6325;49.540;8.364;2023-12-07T12:35:17;3.70;99.90
12520;DHT22;6325;49.540;8.364;2023-12-07T12:37:45;3.30;99.90
12520;DHT22;6325;49.540;8.364;2023-12-07T12:40:14;4.00;99.90
12520;DHT22;6325;49.540;8.364;2023-12-07T12:42:45;3.70;99.90
12520;DHT22;6325;49.540;8.364;2023-12-07T12:45:12;3.50;99.90
12520;DHT22;6325;49.540;8.364;2023-12-07T12:47:39;3.90;99.90
12520;DHT22;6325;49.540;8.364;2023-12-07T12:50:09;3.60;99.90
12520;DHT22;6325;49.540;8.364;2023-12-07T12:52:36;3.00;99.90
12520;DHT22;6325;49.540;8.364;2023-12-07T12:55:07;3.70;99.90
12520;DHT22;6325;49.540;8.364;2023-12-07T12:57:35;3.80;99.90
12520;DHT22;6325;49.540;8.364;2023-12-07T13:00:03;3.00;99.90
12520;DHT22;6325;49.540;8.364;2023-12-07T13:02:29;3.30;99.90
12520;DHT22;6325;49.540;8.364;2023-12-07T13:04:56;3.10;99.90
12520;DHT22;6325;49.540;8.364;2023-12-07T13:07:24;3.50;99.90
12520;DHT22;6325;49.540;8.364;2023-12-07T13:09:51;3.70;99.90
12520;DHT22;6325;49.540;8.364;2023-12-07T13:12:18;3.10;99.90
12520;DHT22;6325;49.540;8.364;2023-12-07T13:14:45;3.10;99.90
12520;DHT22;6325;49.540;8.364;2023-12-07T13:17:12;3.30;99.90
12520;DHT22;6325;49.540;8.364;2023-12-07T13:19:39;3.50;99.90
12520;DHT22;6325;49.540;8.364;2023-12-07T13:22:06;3.60;99.90
12520;DHT22;6325;49.540;8.364;2023-12-07T13:24:34;3.30;99.90
12520;DHT22;6325;49.540;8.364;2023-12-07T13:27:00;3.60;99.90
12520;DHT22;6325;49.540;8.364;2023-12-07T13:29:27;3.10;99.90
12520;DHT22;6325;49.540;8.364;2023-12-07T13:31:56;3.30;99.90
12520;DHT22;6325;49.540;8.364;2023-12-07T13:34:23;3.50;99.90
12520;DHT22;6325;49.540;8.364;2023-12-07T13:36:51;2.60;99.90
12520;DHT22;6325;49.540;8.364;2023-12-07T13:39:18;3.20;99.90
12520;DHT22;6325;49.540;8.364;2023-12-07T13:41:47;3.60;99.90
12520;DHT22;6325;49.540;8.364;2023-12-07T13:44:15;3.10;99.90
12520;DHT22;6325;49.540;8.364;2023-12-07T13:46:44;2.70;99.90
12520;DHT22;6325;49.540;8.364;2023-12-07T13:49:11;2.90;99.90
12520;DHT22;6325;49.540;8.364;2023-12-07T13:51:39;3.80;99.90
12520;DHT22;6325;49.540;8.364;2023-12-07T13:54:06;3.60;99.90
12520;DHT22;6325;49.540;8.364;2023-12-07T13:56:33;3.90;99.90
12520;DHT22;6325;49.540;8.364;2023-12-07T13:59:01;3.60;99.90
12520;DHT22;6325;49.540;8.364;2023-12-07T14:01:28;3.70;99.90
12520;DHT22;6325;49.540;8.364;2023-12-07T14:03:57;3.60;99.90
12520;DHT22;6325;49.540;8.364;2023-12-07T14:06:24;3.60;99.90
12520;DHT22;6325;49.540;8.364;2023-12-07T14:08:51;3.90;99.90
12520;DHT22;6325;49.540;8.364;2023-12-07T14:11:18;3.60;99.90
12520;DHT22;6325;49.540;8.364;2023-12-07T14:13:44;3.60;99.90
12520;DHT22;6325;49.540;8.364;2023-12-07T14:16:13;3.90;99.90
12520;DHT22;6325;49.540;8.364;2023-12-07T14:18:40;3.00;99.90
12520;DHT22;6325;49.540;8.364;2023-12-07T14:21:08;3.40;99.90
12520;DHT22;6325;49.540;8.364;2023-12-07T14:23:34;3.20;99.90
12520;DHT22;6325;49.540;8.364;2023-12-07T14:26:01;3.90;99.90
12520;DHT22;6325;49.540;8.364;2023-12-07T14:28:28;3.50;99.90
12520;DHT22;6325;49.540;8.364;2023-12-07T14:30:56;3.60;99.90
12520;DHT22;6325;49.540;8.364;2023-12-07T14:33:24;3.30;99.90
12520;DHT22;6325;49.540;8.364;2023-12-07T14:35:51;3.90;99.90
12520;DHT22;6325;49.540;8.364;2023-12-07T14:38:18;3.80;99.90
12520;DHT22;6325;49.540;8.364;2023-12-07T14:40:44;3.70;99.90
12520;DHT22;6325;49.540;8.364;2023-12-07T14:43:11;3.40;99.90
12520;DHT22;6325;49.540;8.364;2023-12-07T14:45:38;2.90;99.90
12520;DHT22;6325;49.540;8.364;2023-12-07T14:48:05;3.80;99.90
12520;DHT22;6325;49.540;8.364;2023-12-07T14:50:33;2.70;99.90
12520;DHT22;6325;49.540;8.364;2023-12-07T14:53:00;3.80;99.90
12520;DHT22;6325;49.540;8.364;2023-12-07T14:55:26;3.40;99.90
12520;DHT22;6325;49.540;8.364;2023-12-07T14:57:53;3.80;99.90
12520;DHT22;6325;49.540;8.364;2023-12-07T15:00:20;3.60;99.90
12520;DHT22;6325;49.540;8.364;2023-12-07T15:02:47;3.60;99.90
12520;DHT22;6325;49.540;8.364;2023-12-07T15:05:14;2.80;99.90
12520;DHT22;6325;49.540;8.364;2023-12-07T15:07:42;3.30;99.90
12520;DHT22;6325;49.540;8.364;2023-12-07T15:10:09;3.00;99.90
12520;DHT22;6325;49.540;8.364;2023-12-07T15:12:36;3.20;99.90
12520;DHT22;6325;49.540;8.364;2023-12-07T15:15:03;3.40;99.90
12520;DHT22;6325;49.540;8.364;2023-12-07T15:17:31;3.10;99.90
12520;DHT22;6325;49.540;8.364;2023-12-07T15:19:58;3.70;99.90
12520;DHT22;6325;49.540;8.364;2023-12-07T15:22:25;2.60;99.90
12520;DHT22;6325;49.540;8.364;2023-12-07T15:24:54;3.00;99.90
12520;DHT22;6325;49.540;8.364;2023-12-07T15:27:21;3.30;99.90
12520;DHT22;6325;49.540;8.364;2023-12-07T15:29:50;3.10;99.90
12520;DHT22;6325;49.540;8.364;2023-12-07T15:32:17;3.00;99.90
12520;DHT22;6325;49.540;8.364;2023-12-07T15:34:43;3.00;99.90
12520;DHT22;6325;49.540;8.364;2023-12-07T15:37:10;3.30;99.90
12520;DHT22;6325;49.540;8.364;2023-12-07T15:39:38;2.60;99.90
12520;DHT22;6325;49.540;8.364;2023-12-07T15:42:07;3.20;99.90
12520;DHT22;6325;49.540;8.364;2023-12-07T15:44:34;2.90;99.90
12520;DHT22;6325;49.540;8.364;2023-12-07T15:47:01;3.10;99.90
12520;DHT22;6325;49.540;8.364;2023-12-07T15:49:27;3.30;99.90
12520;DHT22;6325;49.540;8.364;2023-12-07T15:51:54;2.40;99.90
12520;DHT22;6325;49.540;8.364;2023-12-07T15:54:21;3.30;99.90
12520;DHT22;6325;49.540;8.364;2023-12-07T15:56:48;2.80;99.90
12520;DHT22;6325;49.540;8.364;2023-12-07T15:59:16;3.30;99.90
12520;DHT22;6325;49.540;8.364;2023-12-07T16:01:43;3.30;99.90
12520;DHT22;6325;49.540;8.364;2023-12-07T16:04:11;3.20;99.90
12520;DHT22;6325;49.540;8.364;2023-12-07T16:06:40;2.80;99.90